sensor_id;sensor_type;location;lat;lon;timestamp;P1;durP1;ratioP1;P2;durP2;ratioP2
67500;SDS011;54349;52.528;19.760;2024-02-21T00:01:15;5.00;;;2.30;;
67500;SDS011;54349;52.528;19.760;2024-02-21T00:03:46;3.30;;;2.40;;
67500;SDS011;54349;52.528;19.760;2024-02-21T00:06:14;5.20;;;2.50;;
67500;SDS011;54349;52.528;19.760;2024-02-21T00:08:42;4.00;;;2.20;;
67500;SDS011;54349;52.528;19.760;2024-02-21T00:11:12;4.80;;;2.70;;
67500;SDS011;54349;52.528;19.760;2024-02-21T00:13:40;4.90;;;2.60;;
67500;SDS011;54349;52.528;19.760;2024-02-21T00:16:10;5.80;;;2.80;;
67500;SDS011;54349;52.528;19.760;2024-02-21T00:18:39;5.20;;;2.90;;
67500;SDS011;54349;52.528;19.760;2024-02-21T00:21:08;5.90;;;2.30;;
67500;SDS011;54349;52.528;19.760;2024-02-21T00:23:36;6.10;;;2.70;;
67500;SDS011;54349;52.528;19.760;2024-02-21T00:26:06;4.00;;;2.20;;
67500;SDS011;54349;52.528;19.760;2024-02-21T00:28:35;5.10;;;2.70;;
67500;SDS011;54349;52.528;19.760;2024-02-21T00:31:04;4.50;;;2.20;;
67500;SDS011;54349;52.528;19.760;2024-02-21T00:33:32;5.50;;;3.00;;
67500;SDS011;54349;52.528;19.760;2024-02-21T00:36:03;3.30;;;2.30;;
67500;SDS011;54349;52.528;19.760;2024-02-21T00:38:32;7.20;;;2.50;;
67500;SDS011;54349;52.528;19.760;2024-02-21T00:41:02;4.20;;;2.30;;
67500;SDS011;54349;52.528;19.760;2024-02-21T00:43:30;4.00;;;2.80;;
67500;SDS011;54349;52.528;19.760;2024-02-21T00:46:00;5.00;;;2.90;;
67500;SDS011;54349;52.528;19.760;2024-02-21T00:48:28;6.00;;;2.60;;
67500;SDS011;54349;52.528;19.760;2024-02-21T00:50:57;5.30;;;2.50;;
67500;SDS011;54349;52.528;19.760;2024-02-21T00:53:26;5.40;;;2.40;;
67500;SDS011;54349;52.528;19.760;2024-02-21T00:55:54;4.30;;;2.80;;
67500;SDS011;54349;52.528;19.760;2024-02-21T00:58:25;5.70;;;2.50;;
67500;SDS011;54349;52.528;19.760;2024-02-21T01:00:53;4.20;;;2.30;;
67500;SDS011;54349;52.528;19.760;2024-02-21T01:03:22;3.80;;;2.30;;
67500;SDS011;54349;52.528;19.760;2024-02-21T01:05:50;5.30;;;2.50;;
67500;SDS011;54349;52.528;19.760;2024-02-21T01:08:18;3.60;;;2.40;;
67500;SDS011;54349;52.528;19.760;2024-02-21T01:10:49;3.20;;;2.30;;
67500;SDS011;54349;52.528;19.760;2024-02-21T01:13:17;4.70;;;2.90;;
67500;SDS011;54349;52.528;19.760;2024-02-21T01:15:47;4.20;;;2.20;;
67500;SDS011;54349;52.528;19.760;2024-02-21T01:18:15;5.40;;;2.30;;
67500;SDS011;54349;52.528;19.760;2024-02-21T01:20:44;5.80;;;2.50;;
67500;SDS011;54349;52.528;19.760;2024-02-21T01:23:12;5.70;;;2.90;;
67500;SDS011;54349;52.528;19.760;2024-02-21T01:25:44;4.00;;;2.30;;
67500;SDS011;54349;52.528;19.760;2024-02-21T01:28:12;4.40;;;2.70;;
67500;SDS011;54349;52.528;19.760;2024-02-21T01:30:42;5.00;;;2.30;;
67500;SDS011;54349;52.528;19.760;2024-02-21T01:33:12;4.70;;;2.70;;
67500;SDS011;54349;52.528;19.760;2024-02-21T01:35:42;6.70;;;3.00;;
67500;SDS011;54349;52.528;19.760;2024-02-21T01:38:13;4.20;;;2.50;;
67500;SDS011;54349;52.528;19.760;2024-02-21T01:40:44;7.40;;;2.70;;
67500;SDS011;54349;52.528;19.760;2024-02-21T01:43:16;4.00;;;2.50;;
67500;SDS011;54349;52.528;19.760;2024-02-21T01:45:57;3.40;;;2.10;;
67500;SDS011;54349;52.528;19.760;2024-02-21T01:48:26;5.00;;;2.40;;
67500;SDS011;54349;52.528;19.760;2024-02-21T01:50:55;6.10;;;2.70;;
67500;SDS011;54349;52.528;19.760;2024-02-21T01:53:39;6.70;;;3.20;;
67500;SDS011;54349;52.528;19.760;2024-02-21T01:56:13;5.30;;;2.60;;
67500;SDS011;54349;52.528;19.760;2024-02-21T01:58:42;6.30;;;3.20;;
67500;SDS011;54349;52.528;19.760;2024-02-21T02:01:13;6.60;;;3.40;;
67500;SDS011;54349;52.528;19.760;2024-02-21T02:03:45;5.60;;;2.70;;
67500;SDS011;54349;52.528;19.760;2024-02-21T02:06:15;5.40;;;3.10;;
67500;SDS011;54349;52.528;19.760;2024-02-21T02:08:44;4.90;;;2.70;;
67500;SDS011;54349;52.528;19.760;2024-02-21T02:11:14;5.60;;;3.20;;
67500;SDS011;54349;52.528;19.760;2024-02-21T02:13:43;6.30;;;2.80;;
67500;SDS011;54349;52.528;19.760;2024-02-21T02:16:11;5.50;;;3.40;;
67500;SDS011;54349;52.528;19.760;2024-02-21T02:18:40;8.00;;;3.40;;
67500;SDS011;54349;52.528;19.760;2024-02-21T02:21:45;5.60;;;3.00;;
67500;SDS011;54349;52.528;19.760;2024-02-21T02:24:09;5.10;;;3.00;;
67500;SDS011;54349;52.528;19.760;2024-02-21T02:26:38;5.40;;;2.90;;
67500;SDS011;54349;52.528;19.760;2024-02-21T02:29:08;6.40;;;2.90;;
67500;SDS011;54349;52.528;19.760;2024-02-21T02:31:38;5.50;;;2.60;;
67500;SDS011;54349;52.528;19.760;2024-02-21T02:34:07;4.80;;;3.10;;
67500;SDS011;54349;52.528;19.760;2024-02-21T02:36:36;6.50;;;3.00;;
67500;SDS011;54349;52.528;19.760;2024-02-21T02:39:06;4.20;;;2.90;;
67500;SDS011;54349;52.528;19.760;2024-02-21T02:41:35;6.00;;;3.10;;
67500;SDS011;54349;52.528;19.760;2024-02-21T02:44:05;6.40;;;3.20;;
67500;SDS011;54349;52.528;19.760;2024-02-21T02:46:33;4.90;;;3.00;;
67500;SDS011;54349;52.528;19.760;2024-02-21T02:49:03;6.40;;;3.10;;
67500;SDS011;54349;52.528;19.760;2024-02-21T02:51:31;5.70;;;3.50;;
67500;SDS011;54349;52.528;19.760;2024-02-21T02:53:59;7.80;;;3.30;;
67500;SDS011;54349;52.528;19.760;2024-02-21T02:56:28;10.10;;;3.00;;
67500;SDS011;54349;52.528;19.760;2024-02-21T02:58:56;6.60;;;3.10;;
67500;SDS011;54349;52.528;19.760;2024-02-21T03:01:27;6.20;;;3.30;;
67500;SDS011;54349;52.528;19.760;2024-02-21T03:04:00;7.70;;;2.90;;
67500;SDS011;54349;52.528;19.760;2024-02-21T03:06:29;7.60;;;3.20;;
67500;SDS011;54349;52.528;19.760;2024-02-21T03:08:57;4.80;;;2.70;;
67500;SDS011;54349;52.528;19.760;2024-02-21T03:11:28;7.10;;;2.90;;
67500;SDS011;54349;52.528;19.760;2024-02-21T03:13:58;5.80;;;3.10;;
67500;SDS011;54349;52.528;19.760;2024-02-21T03:16:27;6.10;;;3.40;;
67500;SDS011;54349;52.528;19.760;2024-02-21T03:18:56;5.50;;;2.70;;
67500;SDS011;54349;52.528;19.760;2024-02-21T03:21:26;5.20;;;3.10;;
67500;SDS011;54349;52.528;19.760;2024-02-21T03:23:54;6.30;;;3.50;;
67500;SDS011;54349;52.528;19.760;2024-02-21T03:26:24;6.70;;;2.90;;
67500;SDS011;54349;52.528;19.760;2024-02-21T03:28:52;7.10;;;3.50;;
67500;SDS011;54349;52.528;19.760;2024-02-21T03:31:20;6.00;;;2.90;;
67500;SDS011;54349;52.528;19.760;2024-02-21T03:33:50;7.00;;;3.20;;
67500;SDS011;54349;52.528;19.760;2024-02-21T03:36:19;5.60;;;3.00;;
67500;SDS011;54349;52.528;19.760;2024-02-21T03:38:49;7.10;;;3.60;;
67500;SDS011;54349;52.528;19.760;2024-02-21T03:41:17;6.30;;;3.30;;
67500;SDS011;54349;52.528;19.760;2024-02-21T03:43:51;4.20;;;2.70;;
67500;SDS011;54349;52.528;19.760;2024-02-21T03:46:19;6.30;;;3.30;;
67500;SDS011;54349;52.528;19.760;2024-02-21T03:48:49;7.50;;;3.20;;
67500;SDS011;54349;52.528;19.760;2024-02-21T03:51:17;8.90;;;3.70;;
67500;SDS011;54349;52.528;19.760;2024-02-21T03:53:45;7.60;;;3.10;;
67500;SDS011;54349;52.528;19.760;2024-02-21T03:56:14;6.00;;;2.70;;
67500;SDS011;54349;52.528;19.760;2024-02-21T03:58:42;5.70;;;3.10;;
67500;SDS011;54349;52.528;19.760;2024-02-21T04:01:10;5.60;;;3.30;;
67500;SDS011;54349;52.528;19.760;2024-02-21T04:03:41;7.40;;;3.60;;
67500;SDS011;54349;52.528;19.760;2024-02-21T04:06:11;6.20;;;3.50;;
67500;SDS011;54349;52.528;19.760;2024-02-21T04:08:42;4.10;;;2.60;;
67500;SDS011;54349;52.528;19.760;2024-02-21T04:11:10;6.00;;;2.90;;
67500;SDS011;54349;52.528;19.760;2024-02-21T04:13:38;7.00;;;3.20;;
67500;SDS011;54349;52.528;19.760;2024-02-21T04:16:08;8.50;;;3.60;;
67500;SDS011;54349;52.528;19.760;2024-02-21T04:18:36;5.30;;;3.30;;
67500;SDS011;54349;52.528;19.760;2024-02-21T04:21:06;6.90;;;3.80;;
67500;SDS011;54349;52.528;19.760;2024-02-21T04:23:35;4.10;;;2.60;;
67500;SDS011;54349;52.528;19.760;2024-02-21T04:26:05;7.30;;;3.40;;
67500;SDS011;54349;52.528;19.760;2024-02-21T04:28:34;6.00;;;3.90;;
67500;SDS011;54349;52.528;19.760;2024-02-21T04:31:03;9.30;;;4.10;;
67500;SDS011;54349;52.528;19.760;2024-02-21T04:33:32;6.90;;;3.50;;
67500;SDS011;54349;52.528;19.760;2024-02-21T04:36:02;6.70;;;4.10;;
67500;SDS011;54349;52.528;19.760;2024-02-21T04:38:31;6.40;;;4.00;;
67500;SDS011;54349;52.528;19.760;2024-02-21T04:41:01;5.40;;;3.30;;
67500;SDS011;54349;52.528;19.760;2024-02-21T04:43:29;6.90;;;3.80;;
67500;SDS011;54349;52.528;19.760;2024-02-21T04:48:55;8.70;;;3.40;;
67500;SDS011;54349;52.528;19.760;2024-02-21T04:51:24;6.30;;;3.60;;
67500;SDS011;54349;52.528;19.760;2024-02-21T04:53:55;7.30;;;3.90;;
67500;SDS011;54349;52.528;19.760;2024-02-21T04:56:27;7.40;;;4.40;;
67500;SDS011;54349;52.528;19.760;2024-02-21T04:59:00;6.30;;;3.50;;
67500;SDS011;54349;52.528;19.760;2024-02-21T05:01:29;8.00;;;3.60;;
67500;SDS011;54349;52.528;19.760;2024-02-21T05:04:11;8.90;;;4.20;;
67500;SDS011;54349;52.528;19.760;2024-02-21T05:06:39;8.40;;;4.00;;
67500;SDS011;54349;52.528;19.760;2024-02-21T05:09:21;8.70;;;4.10;;
67500;SDS011;54349;52.528;19.760;2024-02-21T05:12:00;7.70;;;4.10;;
67500;SDS011;54349;52.528;19.760;2024-02-21T05:14:28;7.10;;;3.60;;
67500;SDS011;54349;52.528;19.760;2024-02-21T05:16:58;7.80;;;4.20;;
67500;SDS011;54349;52.528;19.760;2024-02-21T05:19:26;9.60;;;4.40;;
67500;SDS011;54349;52.528;19.760;2024-02-21T05:21:56;10.60;;;3.90;;
67500;SDS011;54349;52.528;19.760;2024-02-21T05:24:24;10.40;;;4.30;;
67500;SDS011;54349;52.528;19.760;2024-02-21T05:26:53;9.10;;;3.50;;
67500;SDS011;54349;52.528;19.760;2024-02-21T05:29:22;7.70;;;4.50;;
67500;SDS011;54349;52.528;19.760;2024-02-21T05:34:18;7.30;;;3.40;;
67500;SDS011;54349;52.528;19.760;2024-02-21T05:36:48;8.60;;;4.00;;
67500;SDS011;54349;52.528;19.760;2024-02-21T05:39:17;9.90;;;5.30;;
67500;SDS011;54349;52.528;19.760;2024-02-21T05:41:47;10.40;;;4.30;;
67500;SDS011;54349;52.528;19.760;2024-02-21T05:44:15;13.40;;;4.30;;
67500;SDS011;54349;52.528;19.760;2024-02-21T05:46:43;13.90;;;5.40;;
67500;SDS011;54349;52.528;19.760;2024-02-21T05:49:12;17.30;;;6.10;;
67500;SDS011;54349;52.528;19.760;2024-02-21T05:51:40;17.00;;;6.00;;
67500;SDS011;54349;52.528;19.760;2024-02-21T05:54:11;14.50;;;5.20;;
67500;SDS011;54349;52.528;19.760;2024-02-21T05:56:39;15.00;;;5.30;;
67500;SDS011;54349;52.528;19.760;2024-02-21T05:59:07;13.40;;;5.10;;
67500;SDS011;54349;52.528;19.760;2024-02-21T06:01:36;15.20;;;5.60;;
67500;SDS011;54349;52.528;19.760;2024-02-21T06:04:04;14.90;;;5.30;;
67500;SDS011;54349;52.528;19.760;2024-02-21T06:06:32;13.60;;;5.70;;
67500;SDS011;54349;52.528;19.760;2024-02-21T06:09:02;17.00;;;6.10;;
67500;SDS011;54349;52.528;19.760;2024-02-21T06:11:31;13.10;;;5.70;;
67500;SDS011;54349;52.528;19.760;2024-02-21T06:14:01;23.60;;;7.10;;
67500;SDS011;54349;52.528;19.760;2024-02-21T06:16:29;24.80;;;8.60;;
67500;SDS011;54349;52.528;19.760;2024-02-21T06:19:00;23.80;;;7.50;;
67500;SDS011;54349;52.528;19.760;2024-02-21T06:21:29;25.00;;;8.70;;
67500;SDS011;54349;52.528;19.760;2024-02-21T06:23:58;25.70;;;8.50;;
67500;SDS011;54349;52.528;19.760;2024-02-21T06:26:27;23.10;;;8.70;;
67500;SDS011;54349;52.528;19.760;2024-02-21T06:28:57;18.70;;;8.10;;
67500;SDS011;54349;52.528;19.760;2024-02-21T06:31:28;22.70;;;8.30;;
67500;SDS011;54349;52.528;19.760;2024-02-21T06:33:58;19.70;;;7.40;;
67500;SDS011;54349;52.528;19.760;2024-02-21T06:36:27;18.60;;;7.50;;
67500;SDS011;54349;52.528;19.760;2024-02-21T06:38:56;21.90;;;8.10;;
67500;SDS011;54349;52.528;19.760;2024-02-21T06:41:25;17.00;;;7.10;;
67500;SDS011;54349;52.528;19.760;2024-02-21T06:43:55;19.60;;;7.30;;
67500;SDS011;54349;52.528;19.760;2024-02-21T06:46:24;20.00;;;6.60;;
67500;SDS011;54349;52.528;19.760;2024-02-21T06:48:55;13.20;;;6.30;;
67500;SDS011;54349;52.528;19.760;2024-02-21T06:51:30;17.00;;;6.70;;
67500;SDS011;54349;52.528;19.760;2024-02-21T06:53:58;13.80;;;7.10;;
67500;SDS011;54349;52.528;19.760;2024-02-21T06:56:28;11.90;;;6.10;;
67500;SDS011;54349;52.528;19.760;2024-02-21T06:58:57;16.50;;;6.80;;
67500;SDS011;54349;52.528;19.760;2024-02-21T07:01:28;13.70;;;5.80;;
67500;SDS011;54349;52.528;19.760;2024-02-21T07:03:56;13.10;;;5.90;;
67500;SDS011;54349;52.528;19.760;2024-02-21T07:06:26;15.60;;;5.40;;
67500;SDS011;54349;52.528;19.760;2024-02-21T07:08:55;13.30;;;5.30;;
67500;SDS011;54349;52.528;19.760;2024-02-21T07:11:25;14.40;;;6.50;;
67500;SDS011;54349;52.528;19.760;2024-02-21T07:13:53;11.50;;;6.10;;
67500;SDS011;54349;52.528;19.760;2024-02-21T07:16:23;11.60;;;5.70;;
67500;SDS011;54349;52.528;19.760;2024-02-21T07:18:51;9.00;;;5.30;;
67500;SDS011;54349;52.528;19.760;2024-02-21T07:21:21;12.80;;;6.10;;
67500;SDS011;54349;52.528;19.760;2024-02-21T07:23:50;11.60;;;6.10;;
67500;SDS011;54349;52.528;19.760;2024-02-21T07:26:20;10.60;;;5.10;;
67500;SDS011;54349;52.528;19.760;2024-02-21T07:28:49;10.10;;;5.10;;
67500;SDS011;54349;52.528;19.760;2024-02-21T07:31:19;11.10;;;5.70;;
67500;SDS011;54349;52.528;19.760;2024-02-21T07:33:47;15.60;;;5.80;;
67500;SDS011;54349;52.528;19.760;2024-02-21T07:36:15;10.70;;;6.50;;
67500;SDS011;54349;52.528;19.760;2024-02-21T07:38:56;12.80;;;5.70;;
67500;SDS011;54349;52.528;19.760;2024-02-21T07:41:28;12.00;;;5.90;;
67500;SDS011;54349;52.528;19.760;2024-02-21T07:44:02;9.50;;;6.00;;
67500;SDS011;54349;52.528;19.760;2024-02-21T07:46:34;9.50;;;5.60;;
67500;SDS011;54349;52.528;19.760;2024-02-21T07:49:06;13.10;;;5.50;;
67500;SDS011;54349;52.528;19.760;2024-02-21T07:51:37;11.70;;;5.50;;
67500;SDS011;54349;52.528;19.760;2024-02-21T07:54:23;13.70;;;5.80;;
67500;SDS011;54349;52.528;19.760;2024-02-21T07:56:57;11.60;;;6.00;;
67500;SDS011;54349;52.528;19.760;2024-02-21T07:59:29;10.10;;;6.20;;
67500;SDS011;54349;52.528;19.760;2024-02-21T08:02:01;10.90;;;6.30;;
67500;SDS011;54349;52.528;19.760;2024-02-21T08:04:35;14.40;;;6.20;;
67500;SDS011;54349;52.528;19.760;2024-02-21T08:07:09;11.10;;;5.30;;
67500;SDS011;54349;52.528;19.760;2024-02-21T08:09:47;11.20;;;5.60;;
67500;SDS011;54349;52.528;19.760;2024-02-21T08:12:28;12.80;;;6.30;;
67500;SDS011;54349;52.528;19.760;2024-02-21T08:15:01;13.90;;;5.60;;
67500;SDS011;54349;52.528;19.760;2024-02-21T08:17:35;13.20;;;5.90;;
67500;SDS011;54349;52.528;19.760;2024-02-21T08:20:07;11.60;;;5.30;;
67500;SDS011;54349;52.528;19.760;2024-02-21T08:22:49;9.50;;;5.20;;
67500;SDS011;54349;52.528;19.760;2024-02-21T08:25:24;8.00;;;4.80;;
67500;SDS011;54349;52.528;19.760;2024-02-21T08:28:04;12.10;;;4.80;;
67500;SDS011;54349;52.528;19.760;2024-02-21T08:30:34;10.40;;;5.60;;
67500;SDS011;54349;52.528;19.760;2024-02-21T08:33:03;13.30;;;6.80;;
67500;SDS011;54349;52.528;19.760;2024-02-21T08:35:32;11.60;;;5.20;;
67500;SDS011;54349;52.528;19.760;2024-02-21T08:38:02;11.20;;;5.10;;
67500;SDS011;54349;52.528;19.760;2024-02-21T08:40:30;9.80;;;5.80;;
67500;SDS011;54349;52.528;19.760;2024-02-21T08:43:06;12.10;;;5.10;;
67500;SDS011;54349;52.528;19.760;2024-02-21T08:45:34;10.90;;;5.50;;
67500;SDS011;54349;52.528;19.760;2024-02-21T08:48:05;9.50;;;5.70;;
67500;SDS011;54349;52.528;19.760;2024-02-21T08:50:34;10.10;;;5.70;;
67500;SDS011;54349;52.528;19.760;2024-02-21T08:53:06;9.10;;;5.00;;
67500;SDS011;54349;52.528;19.760;2024-02-21T08:55:35;9.70;;;6.10;;
67500;SDS011;54349;52.528;19.760;2024-02-21T08:58:05;7.70;;;5.00;;
67500;SDS011;54349;52.528;19.760;2024-02-21T09:00:34;10.60;;;4.90;;
67500;SDS011;54349;52.528;19.760;2024-02-21T09:03:02;11.70;;;5.30;;
67500;SDS011;54349;52.528;19.760;2024-02-21T09:05:32;9.80;;;4.70;;
67500;SDS011;54349;52.528;19.760;2024-02-21T09:08:03;8.60;;;4.70;;
67500;SDS011;54349;52.528;19.760;2024-02-21T09:10:36;8.90;;;5.10;;
67500;SDS011;54349;52.528;19.760;2024-02-21T09:13:09;10.40;;;5.30;;
67500;SDS011;54349;52.528;19.760;2024-02-21T09:15:37;10.00;;;5.00;;
67500;SDS011;54349;52.528;19.760;2024-02-21T09:18:07;9.70;;;5.20;;
67500;SDS011;54349;52.528;19.760;2024-02-21T09:20:36;8.90;;;4.10;;
67500;SDS011;54349;52.528;19.760;2024-02-21T09:23:07;11.90;;;4.60;;
67500;SDS011;54349;52.528;19.760;2024-02-21T09:25:35;7.90;;;4.20;;
67500;SDS011;54349;52.528;19.760;2024-02-21T09:28:04;9.20;;;4.50;;
67500;SDS011;54349;52.528;19.760;2024-02-21T09:30:34;9.30;;;4.80;;
67500;SDS011;54349;52.528;19.760;2024-02-21T09:33:06;7.30;;;4.20;;
67500;SDS011;54349;52.528;19.760;2024-02-21T09:35:34;7.50;;;3.80;;
67500;SDS011;54349;52.528;19.760;2024-02-21T09:38:06;9.10;;;4.50;;
67500;SDS011;54349;52.528;19.760;2024-02-21T09:40:34;6.90;;;4.00;;
67500;SDS011;54349;52.528;19.760;2024-02-21T09:43:07;7.20;;;3.80;;
67500;SDS011;54349;52.528;19.760;2024-02-21T09:45:35;7.40;;;4.00;;
67500;SDS011;54349;52.528;19.760;2024-02-21T09:51:04;6.90;;;3.60;;
67500;SDS011;54349;52.528;19.760;2024-02-21T09:53:35;6.30;;;3.70;;
67500;SDS011;54349;52.528;19.760;2024-02-21T09:56:08;6.70;;;3.70;;
67500;SDS011;54349;52.528;19.760;2024-02-21T09:58:43;7.40;;;4.00;;
67500;SDS011;54349;52.528;19.760;2024-02-21T10:01:12;6.40;;;4.30;;
67500;SDS011;54349;52.528;19.760;2024-02-21T10:04:01;10.60;;;3.60;;
67500;SDS011;54349;52.528;19.760;2024-02-21T10:06:31;7.10;;;3.20;;
67500;SDS011;54349;52.528;19.760;2024-02-21T10:09:03;7.40;;;3.50;;
67500;SDS011;54349;52.528;19.760;2024-02-21T10:11:31;4.60;;;3.30;;
67500;SDS011;54349;52.528;19.760;2024-02-21T10:16:33;7.20;;;3.50;;
67500;SDS011;54349;52.528;19.760;2024-02-21T10:19:05;6.00;;;3.80;;
67500;SDS011;54349;52.528;19.760;2024-02-21T10:21:33;6.50;;;3.50;;
67500;SDS011;54349;52.528;19.760;2024-02-21T10:24:03;8.70;;;3.60;;
67500;SDS011;54349;52.528;19.760;2024-02-21T10:26:32;5.10;;;3.20;;
67500;SDS011;54349;52.528;19.760;2024-02-21T10:29:05;6.20;;;3.20;;
67500;SDS011;54349;52.528;19.760;2024-02-21T10:31:33;4.70;;;3.20;;
67500;SDS011;54349;52.528;19.760;2024-02-21T10:34:03;5.50;;;3.50;;
67500;SDS011;54349;52.528;19.760;2024-02-21T10:36:33;5.50;;;3.80;;
67500;SDS011;54349;52.528;19.760;2024-02-21T10:39:03;6.10;;;3.40;;
67500;SDS011;54349;52.528;19.760;2024-02-21T10:41:31;4.00;;;2.90;;
67500;SDS011;54349;52.528;19.760;2024-02-21T10:44:01;6.70;;;3.00;;
67500;SDS011;54349;52.528;19.760;2024-02-21T10:46:36;6.70;;;3.30;;
67500;SDS011;54349;52.528;19.760;2024-02-21T10:49:08;5.10;;;3.40;;
67500;SDS011;54349;52.528;19.760;2024-02-21T10:51:43;6.00;;;3.20;;
67500;SDS011;54349;52.528;19.760;2024-02-21T10:57:16;4.60;;;3.20;;
67500;SDS011;54349;52.528;19.760;2024-02-21T10:59:45;7.70;;;3.60;;
67500;SDS011;54349;52.528;19.760;2024-02-21T11:02:17;4.40;;;3.30;;
67500;SDS011;54349;52.528;19.760;2024-02-21T11:04:45;5.10;;;2.90;;
67500;SDS011;54349;52.528;19.760;2024-02-21T11:07:16;7.40;;;3.50;;
67500;SDS011;54349;52.528;19.760;2024-02-21T11:09:51;4.90;;;3.20;;
67500;SDS011;54349;52.528;19.760;2024-02-21T11:12:21;6.20;;;3.50;;
67500;SDS011;54349;52.528;19.760;2024-02-21T11:14:50;5.60;;;3.10;;
67500;SDS011;54349;52.528;19.760;2024-02-21T11:17:20;4.10;;;2.90;;
67500;SDS011;54349;52.528;19.760;2024-02-21T11:19:56;4.50;;;3.50;;
67500;SDS011;54349;52.528;19.760;2024-02-21T11:22:24;7.70;;;3.50;;
67500;SDS011;54349;52.528;19.760;2024-02-21T11:25:07;6.10;;;3.30;;
67500;SDS011;54349;52.528;19.760;2024-02-21T11:27:46;4.20;;;3.10;;
67500;SDS011;54349;52.528;19.760;2024-02-21T11:30:14;4.10;;;2.60;;
67500;SDS011;54349;52.528;19.760;2024-02-21T11:32:46;6.20;;;3.50;;
67500;SDS011;54349;52.528;19.760;2024-02-21T11:35:21;5.40;;;2.70;;
67500;SDS011;54349;52.528;19.760;2024-02-21T11:37:50;4.20;;;2.80;;
67500;SDS011;54349;52.528;19.760;2024-02-21T11:40:20;4.70;;;2.70;;
67500;SDS011;54349;52.528;19.760;2024-02-21T11:42:49;4.80;;;2.60;;
67500;SDS011;54349;52.528;19.760;2024-02-21T11:45:17;4.10;;;2.60;;
67500;SDS011;54349;52.528;19.760;2024-02-21T11:47:48;5.50;;;3.10;;
67500;SDS011;54349;52.528;19.760;2024-02-21T11:50:17;3.40;;;2.30;;
67500;SDS011;54349;52.528;19.760;2024-02-21T11:52:49;3.30;;;2.40;;
67500;SDS011;54349;52.528;19.760;2024-02-21T11:55:21;6.90;;;2.80;;
67500;SDS011;54349;52.528;19.760;2024-02-21T11:57:51;5.30;;;3.00;;
67500;SDS011;54349;52.528;19.760;2024-02-21T12:00:19;4.70;;;2.80;;
67500;SDS011;54349;52.528;19.760;2024-02-21T12:02:50;3.50;;;2.70;;
67500;SDS011;54349;52.528;19.760;2024-02-21T12:05:22;3.30;;;2.30;;
67500;SDS011;54349;52.528;19.760;2024-02-21T12:07:51;2.60;;;2.20;;
67500;SDS011;54349;52.528;19.760;2024-02-21T12:10:22;3.80;;;2.80;;
67500;SDS011;54349;52.528;19.760;2024-02-21T12:12:52;4.20;;;2.80;;
67500;SDS011;54349;52.528;19.760;2024-02-21T12:15:26;4.10;;;2.30;;
67500;SDS011;54349;52.528;19.760;2024-02-21T12:17:54;4.10;;;2.30;;
67500;SDS011;54349;52.528;19.760;2024-02-21T12:20:26;3.70;;;2.30;;
67500;SDS011;54349;52.528;19.760;2024-02-21T12:22:54;2.60;;;2.20;;
67500;SDS011;54349;52.528;19.760;2024-02-21T12:25:27;3.10;;;1.90;;
67500;SDS011;54349;52.528;19.760;2024-02-21T12:27:56;4.30;;;2.80;;
67500;SDS011;54349;52.528;19.760;2024-02-21T12:30:26;3.20;;;2.30;;
67500;SDS011;54349;52.528;19.760;2024-02-21T12:32:54;3.10;;;2.00;;
67500;SDS011;54349;52.528;19.760;2024-02-21T12:35:28;3.00;;;2.10;;
67500;SDS011;54349;52.528;19.760;2024-02-21T12:37:56;4.10;;;2.30;;
67500;SDS011;54349;52.528;19.760;2024-02-21T12:40:27;3.90;;;2.40;;
67500;SDS011;54349;52.528;19.760;2024-02-21T12:43:03;4.80;;;2.70;;
67500;SDS011;54349;52.528;19.760;2024-02-21T12:45:32;3.30;;;2.10;;
67500;SDS011;54349;52.528;19.760;2024-02-21T12:48:03;3.50;;;2.60;;
67500;SDS011;54349;52.528;19.760;2024-02-21T12:50:32;4.30;;;2.00;;
67500;SDS011;54349;52.528;19.760;2024-02-21T12:53:03;3.10;;;2.10;;
67500;SDS011;54349;52.528;19.760;2024-02-21T12:55:50;5.50;;;2.60;;
67500;SDS011;54349;52.528;19.760;2024-02-21T12:58:19;4.10;;;2.50;;
67500;SDS011;54349;52.528;19.760;2024-02-21T13:00:50;3.10;;;2.40;;
67500;SDS011;54349;52.528;19.760;2024-02-21T13:03:22;3.50;;;2.30;;
67500;SDS011;54349;52.528;19.760;2024-02-21T13:05:52;3.80;;;2.20;;
67500;SDS011;54349;52.528;19.760;2024-02-21T13:08:20;4.00;;;2.70;;
67500;SDS011;54349;52.528;19.760;2024-02-21T13:10:51;2.60;;;2.00;;
67500;SDS011;54349;52.528;19.760;2024-02-21T13:13:22;4.40;;;2.30;;
67500;SDS011;54349;52.528;19.760;2024-02-21T13:15:52;3.60;;;2.30;;
67500;SDS011;54349;52.528;19.760;2024-02-21T13:18:20;3.90;;;2.40;;
67500;SDS011;54349;52.528;19.760;2024-02-21T13:20:50;4.80;;;2.10;;
67500;SDS011;54349;52.528;19.760;2024-02-21T13:23:18;4.70;;;2.50;;
67500;SDS011;54349;52.528;19.760;2024-02-21T13:25:50;2.70;;;2.20;;
67500;SDS011;54349;52.528;19.760;2024-02-21T13:28:18;5.50;;;2.50;;
67500;SDS011;54349;52.528;19.760;2024-02-21T13:30:49;4.50;;;3.00;;
67500;SDS011;54349;52.528;19.760;2024-02-21T13:33:17;5.80;;;2.70;;
67500;SDS011;54349;52.528;19.760;2024-02-21T13:35:49;3.80;;;2.50;;
67500;SDS011;54349;52.528;19.760;2024-02-21T13:38:17;6.10;;;2.50;;
67500;SDS011;54349;52.528;19.760;2024-02-21T13:40:48;5.60;;;2.40;;
67500;SDS011;54349;52.528;19.760;2024-02-21T13:43:16;4.60;;;2.20;;
67500;SDS011;54349;52.528;19.760;2024-02-21T13:45:55;5.90;;;2.90;;
67500;SDS011;54349;52.528;19.760;2024-02-21T13:48:29;4.90;;;2.80;;
67500;SDS011;54349;52.528;19.760;2024-02-21T13:50:58;4.40;;;2.60;;
67500;SDS011;54349;52.528;19.760;2024-02-21T13:53:30;2.80;;;2.50;;
67500;SDS011;54349;52.528;19.760;2024-02-21T13:55:59;5.00;;;3.10;;
67500;SDS011;54349;52.528;19.760;2024-02-21T13:58:31;4.80;;;2.20;;
67500;SDS011;54349;52.528;19.760;2024-02-21T14:00:59;4.80;;;2.50;;
67500;SDS011;54349;52.528;19.760;2024-02-21T14:06:01;5.20;;;3.20;;
67500;SDS011;54349;52.528;19.760;2024-02-21T14:08:34;4.80;;;2.70;;
67500;SDS011;54349;52.528;19.760;2024-02-21T14:11:03;4.00;;;2.20;;
67500;SDS011;54349;52.528;19.760;2024-02-21T14:13:34;5.00;;;3.20;;
67500;SDS011;54349;52.528;19.760;2024-02-21T14:16:03;4.00;;;3.00;;
67500;SDS011;54349;52.528;19.760;2024-02-21T14:18:42;6.50;;;3.20;;
67500;SDS011;54349;52.528;19.760;2024-02-21T14:21:11;6.20;;;3.00;;
67500;SDS011;54349;52.528;19.760;2024-02-21T14:23:42;5.60;;;3.20;;
67500;SDS011;54349;52.528;19.760;2024-02-21T14:26:10;7.20;;;3.50;;
67500;SDS011;54349;52.528;19.760;2024-02-21T14:28:41;4.60;;;3.30;;
67500;SDS011;54349;52.528;19.760;2024-02-21T14:31:13;6.70;;;3.40;;
67500;SDS011;54349;52.528;19.760;2024-02-21T14:33:42;5.30;;;3.10;;
67500;SDS011;54349;52.528;19.760;2024-02-21T14:36:20;7.00;;;3.40;;
67500;SDS011;54349;52.528;19.760;2024-02-21T14:38:51;6.90;;;2.80;;
67500;SDS011;54349;52.528;19.760;2024-02-21T14:41:21;5.90;;;3.50;;
67500;SDS011;54349;52.528;19.760;2024-02-21T14:43:50;6.20;;;3.30;;
67500;SDS011;54349;52.528;19.760;2024-02-21T14:46:21;4.00;;;2.60;;
67500;SDS011;54349;52.528;19.760;2024-02-21T14:48:49;6.40;;;3.40;;
67500;SDS011;54349;52.528;19.760;2024-02-21T14:51:20;5.80;;;3.10;;
67500;SDS011;54349;52.528;19.760;2024-02-21T14:53:48;4.00;;;2.80;;
67500;SDS011;54349;52.528;19.760;2024-02-21T14:56:18;4.50;;;2.70;;
67500;SDS011;54349;52.528;19.760;2024-02-21T14:58:47;3.10;;;2.00;;
67500;SDS011;54349;52.528;19.760;2024-02-21T15:01:19;3.60;;;2.70;;
67500;SDS011;54349;52.528;19.760;2024-02-21T15:03:47;4.30;;;2.60;;
67500;SDS011;54349;52.528;19.760;2024-02-21T15:06:17;5.00;;;3.10;;